createdAt,value
2023-04-16T00:01:10.700Z,100972.16
2023-04-16T00:03:38.733Z,100973.56
2023-04-16T00:06:07.166Z,100977.44
2023-04-16T00:08:35.658Z,100976.91
2023-04-16T00:11:03.911Z,100974.81
2023-04-16T00:13:31.806Z,100984.44
2023-04-16T00:16:01.124Z,100983.59
2023-04-16T00:18:29.044Z,100991.47
2023-04-16T00:20:56.845Z,100979.41
2023-04-16T00:23:25.724Z,100984.03
2023-04-16T00:25:54.072Z,100977.59
2023-04-16T00:28:21.927Z,100980.09
2023-04-16T00:30:50.040Z,100987.81
2023-04-16T00:33:19.355Z,100983.50
2023-04-16T00:35:47.971Z,100977.19
2023-04-16T00:38:16.101Z,100984.44
2023-04-16T00:40:43.992Z,100990.34
2023-04-16T00:43:11.836Z,100987.53
2023-04-16T00:45:39.830Z,100989.22
2023-04-16T00:48:07.953Z,100992.16
2023-04-16T00:50:37.102Z,100986.84
2023-04-16T00:53:05.057Z,100987.94
2023-04-16T00:55:33.143Z,100994.22
2023-04-16T00:58:01.183Z,100988.66
2023-04-16T01:00:29.200Z,100991.56
2023-04-16T01:02:58.127Z,100992.53
2023-04-16T01:05:26.108Z,100993.38
2023-04-16T01:07:55.348Z,100991.47
2023-04-16T01:10:23.349Z,100995.78
2023-04-16T01:12:51.241Z,100988.50
2023-04-16T01:15:19.283Z,100996.75
2023-04-16T01:17:47.373Z,100995.06
2023-04-16T01:20:15.496Z,100998.56
2023-04-16T01:22:44.789Z,101001.22
2023-04-16T01:25:15.453Z,101004.72
2023-04-16T01:27:43.386Z,101003.84
2023-04-16T01:30:11.703Z,101005.13
2023-04-16T01:32:50.553Z,101009.47
2023-04-16T01:35:19.004Z,101012.69
2023-04-16T01:37:48.283Z,101012.94
2023-04-16T01:40:16.217Z,101010.44
2023-04-16T01:42:44.143Z,101004.00
2023-04-16T01:45:12.457Z,101010.56
2023-04-16T01:47:40.378Z,101009.59
2023-04-16T01:50:09.175Z,101008.22
2023-04-16T01:52:37.114Z,101009.75
2023-04-16T01:55:07.207Z,101016.88
2023-04-16T01:57:35.073Z,101027.19
2023-04-16T02:00:04.474Z,101023.16
2023-04-16T02:02:34.236Z,101021.19
2023-04-16T02:05:02.413Z,101025.25
2023-04-16T02:07:31.577Z,101026.50
2023-04-16T02:09:59.489Z,101026.38
2023-04-16T02:12:29.169Z,101026.66
2023-04-16T02:14:57.265Z,101032.78
2023-04-16T02:17:27.487Z,101029.00
2023-04-16T02:20:10.147Z,101032.78
2023-04-16T02:22:48.673Z,101037.25
2023-04-16T02:25:19.518Z,101029.59
2023-04-16T02:27:48.777Z,101029.88
2023-04-16T02:30:30.748Z,101029.44
2023-04-16T02:32:59.060Z,101032.25
2023-04-16T02:35:27.650Z,101035.56
2023-04-16T02:37:55.598Z,101035.44
2023-04-16T02:40:23.720Z,101035.16
2023-04-16T02:42:52.962Z,101042.00
2023-04-16T02:45:21.890Z,101039.06
2023-04-16T02:47:49.990Z,101039.19
2023-04-16T02:50:18.188Z,101040.88
2023-04-16T02:52:46.130Z,101049.81
2023-04-16T02:55:14.076Z,101040.88
2023-04-16T02:57:42.486Z,101045.34
2023-04-16T03:00:12.927Z,101037.53
2023-04-16T03:02:40.906Z,101050.66
2023-04-16T03:05:11.821Z,101046.31
2023-04-16T03:07:40.789Z,101054.88
2023-04-16T03:10:09.972Z,101044.78
2023-04-16T03:12:37.836Z,101052.47
2023-04-16T03:15:08.722Z,101053.16
2023-04-16T03:17:37.978Z,101051.47
2023-04-16T03:20:07.390Z,101054.56
2023-04-16T03:22:35.423Z,101062.53
2023-04-16T03:25:03.267Z,101059.44
2023-04-16T03:27:32.316Z,101068.81
2023-04-16T03:30:00.278Z,101066.84
2023-04-16T03:32:28.964Z,101056.78
2023-04-16T03:34:58.475Z,101065.16
2023-04-16T03:37:26.507Z,101068.91
2023-04-16T03:39:54.435Z,101072.09
2023-04-16T03:42:22.757Z,101075.47
2023-04-16T03:44:50.895Z,101074.63
2023-04-16T03:47:19.551Z,101074.06
2023-04-16T03:49:48.811Z,101076.84
2023-04-16T03:52:18.201Z,101078.09
2023-04-16T03:54:46.077Z,101080.44
2023-04-16T03:57:22.850Z,101082.81
2023-04-16T03:59:50.976Z,101090.13
2023-04-16T04:02:19.529Z,101089.41
2023-04-16T04:04:47.759Z,101089.72
2023-04-16T04:07:18.350Z,101094.19
2023-04-16T04:09:46.272Z,101094.88
2023-04-16T04:12:14.498Z,101093.88
2023-04-16T04:14:44.075Z,101105.47
2023-04-16T04:17:12.039Z,101105.34
2023-04-16T04:19:47.171Z,101106.75
2023-04-16T04:22:23.976Z,101099.75
2023-04-16T04:24:53.952Z,101107.81
2023-04-16T04:27:21.860Z,101115.53
2023-04-16T04:29:49.712Z,101114.97
2023-04-16T04:32:17.627Z,101107.56
2023-04-16T04:34:46.620Z,101115.53
2023-04-16T04:37:14.406Z,101118.34
2023-04-16T04:39:43.613Z,101114.28
2023-04-16T04:42:13.563Z,101107.28
2023-04-16T04:44:41.824Z,101111.63
2023-04-16T04:47:10.533Z,101124.19
2023-04-16T04:49:40.775Z,101123.09
2023-04-16T04:52:09.366Z,101128.25
2023-04-16T04:54:37.256Z,101123.22
2023-04-16T04:57:07.557Z,101133.53
2023-04-16T04:59:37.516Z,101133.13
2023-04-16T05:02:05.615Z,101139.16
2023-04-16T05:04:33.521Z,101140.41
2023-04-16T05:07:01.779Z,101138.59
2023-04-16T05:09:29.696Z,101149.03
2023-04-16T05:11:58.023Z,101149.75
2023-04-16T05:14:27.236Z,101153.59
2023-04-16T05:16:55.140Z,101159.84
2023-04-16T05:19:23.261Z,101159.97
2023-04-16T05:21:51.083Z,101160.56
2023-04-16T05:24:18.919Z,101157.50
2023-04-16T05:26:46.722Z,101163.91
2023-04-16T05:29:14.580Z,101172.56
2023-04-16T05:31:43.711Z,101169.22
2023-04-16T05:34:11.662Z,101169.91
2023-04-16T05:36:39.500Z,101175.94
2023-04-16T05:39:07.721Z,101172.56
2023-04-16T05:41:35.714Z,101172.84
2023-04-16T05:44:03.723Z,101176.34
2023-04-16T05:46:31.529Z,101178.41
2023-04-16T05:49:00.862Z,101179.00
2023-04-16T05:51:28.922Z,101175.56
2023-04-16T05:53:56.728Z,101182.91
2023-04-16T05:56:25.387Z,101184.88
2023-04-16T05:58:53.222Z,101185.56
2023-04-16T06:01:20.982Z,101183.38
2023-04-16T06:03:48.947Z,101189.66
2023-04-16T06:06:18.272Z,101192.03
2023-04-16T06:08:46.336Z,101195.97
2023-04-16T06:11:14.187Z,101200.56
2023-04-16T06:13:43.689Z,101200.31
2023-04-16T06:16:11.558Z,101204.63
2023-04-16T06:18:39.437Z,101201.06
2023-04-16T06:21:07.369Z,101205.97
2023-04-16T06:23:36.581Z,101211.56
2023-04-16T06:26:04.396Z,101207.66
2023-04-16T06:28:32.282Z,101212.53
2023-04-16T06:31:01.041Z,101213.09
2023-04-16T06:33:28.977Z,101217.22
2023-04-16T06:35:56.862Z,101217.63
2023-04-16T06:38:24.804Z,101217.75
2023-04-16T06:40:54.124Z,101215.81
2023-04-16T06:43:22.006Z,101218.69
2023-04-16T06:45:49.955Z,101215.41
2023-04-16T06:48:17.795Z,101221.97
2023-04-16T06:50:45.713Z,101227.78
2023-04-16T06:53:13.719Z,101227.97
2023-04-16T06:55:41.542Z,101227.75
2023-04-16T06:58:10.715Z,101227.47
2023-04-16T07:00:38.531Z,101230.28
2023-04-16T07:03:06.563Z,101234.34
2023-04-16T07:05:34.507Z,101235.19
2023-04-16T07:08:02.381Z,101237.03
2023-04-16T07:10:30.407Z,101232.56
2023-04-16T07:12:58.302Z,101246.66
2023-04-16T07:15:27.539Z,101244.25
2023-04-16T07:17:55.766Z,101243.56
2023-04-16T07:20:23.708Z,101243.13
2023-04-16T07:22:51.608Z,101248.34
2023-04-16T07:25:19.493Z,101249.34
2023-04-16T07:27:47.307Z,101258.84
2023-04-16T07:30:15.622Z,101251.31
2023-04-16T07:32:45.051Z,101261.50
2023-04-16T07:35:12.990Z,101257.03
2023-04-16T07:37:41.344Z,101254.66
2023-04-16T07:40:12.957Z,101264.50
2023-04-16T07:42:40.905Z,101262.91
2023-04-16T07:45:09.793Z,101276.75
2023-04-16T07:47:37.689Z,101274.09
2023-04-16T07:50:08.312Z,101275.16
2023-04-16T07:52:37.197Z,101274.31
2023-04-16T07:55:05.891Z,101278.22
2023-04-16T07:57:35.748Z,101278.28
2023-04-16T08:00:04.934Z,101283.50
2023-04-16T08:02:41.236Z,101282.69
2023-04-16T08:05:11.232Z,101294.16
2023-04-16T08:07:39.247Z,101281.91
2023-04-16T08:10:08.344Z,101287.66
2023-04-16T08:12:36.420Z,101287.22
2023-04-16T08:15:04.656Z,101295.06
2023-04-16T08:17:34.405Z,101291.78
2023-04-16T08:20:02.344Z,101299.19
2023-04-16T08:22:31.566Z,101296.41
2023-04-16T08:24:59.417Z,101303.53
2023-04-16T08:27:27.344Z,101304.22
2023-04-16T08:29:57.280Z,101313.31
2023-04-16T08:32:25.836Z,101312.66
2023-04-16T08:34:53.821Z,101312.56
2023-04-16T08:37:21.598Z,101316.09
2023-04-16T08:39:50.877Z,101320.72
2023-04-16T08:42:24.705Z,101317.75
2023-04-16T08:44:54.359Z,101321.84
2023-04-16T08:47:23.671Z,101324.41
2023-04-16T08:49:52.151Z,101327.91
2023-04-16T08:52:20.957Z,101332.53
2023-04-16T08:54:57.059Z,101331.13
2023-04-16T08:57:25.441Z,101334.06
2023-04-16T08:59:55.485Z,101330.84
2023-04-16T09:02:23.949Z,101341.91
2023-04-16T09:04:52.355Z,101336.88
2023-04-16T09:07:20.846Z,101341.34
2023-04-16T09:09:52.128Z,101337.69
2023-04-16T09:12:20.504Z,101342.09
2023-04-16T09:14:49.682Z,101351.41
2023-04-16T09:17:17.883Z,101347.34
2023-04-16T09:19:45.894Z,101352.16
2023-04-16T09:22:13.735Z,101348.34
2023-04-16T09:24:41.899Z,101343.97
2023-04-16T09:27:12.195Z,101362.59
2023-04-16T09:29:41.506Z,101354.63
2023-04-16T09:32:10.733Z,101363.31
2023-04-16T09:34:57.568Z,101360.53
2023-04-16T09:37:26.022Z,101358.97
2023-04-16T09:39:55.144Z,101359.66
2023-04-16T09:42:25.562Z,101363.31
2023-04-16T09:44:53.769Z,101366.91
2023-04-16T09:47:22.453Z,101369.63
2023-04-16T09:49:50.410Z,101374.75
2023-04-16T09:52:20.046Z,101376.28
2023-04-16T09:54:49.307Z,101371.13
2023-04-16T09:57:20.933Z,101379.78
2023-04-16T09:59:50.408Z,101374.75
2023-04-16T10:02:18.552Z,101373.34
2023-04-16T10:04:47.965Z,101375.75
2023-04-16T10:07:16.357Z,101374.63
2023-04-16T10:09:44.479Z,101383.03
2023-04-16T10:12:13.416Z,101377.84
2023-04-16T10:14:41.893Z,101385.38
2023-04-16T10:17:11.480Z,101393.78
2023-04-16T10:19:39.963Z,101388.91
2023-04-16T10:22:07.819Z,101385.81
2023-04-16T10:24:36.172Z,101386.22
2023-04-16T10:27:04.034Z,101382.59
2023-04-16T10:29:32.433Z,101389.22
2023-04-16T10:32:01.079Z,101386.97
2023-04-16T10:34:31.206Z,101384.16
2023-04-16T10:36:59.208Z,101386.25
2023-04-16T10:39:29.780Z,101387.66
2023-04-16T10:42:08.866Z,101386.72
2023-04-16T10:44:36.968Z,101393.47
2023-04-16T10:47:12.094Z,101395.56
2023-04-16T10:49:42.368Z,101391.22
2023-04-16T10:52:12.438Z,101400.72
2023-04-16T10:54:40.768Z,101397.94
2023-04-16T10:57:10.699Z,101395.56
2023-04-16T10:59:39.783Z,101402.81
2023-04-16T11:02:09.525Z,101401.44
2023-04-16T11:04:38.858Z,101391.91
2023-04-16T11:07:16.390Z,101403.13
2023-04-16T11:09:59.308Z,101406.31
2023-04-16T11:12:29.061Z,101402.00
2023-04-16T11:15:00.850Z,101403.09
2023-04-16T11:17:30.736Z,101408.41
2023-04-16T11:19:58.743Z,101412.78
2023-04-16T11:22:28.182Z,101404.34
2023-04-16T11:24:57.081Z,101410.41
2023-04-16T11:27:25.468Z,101405.25
2023-04-16T11:30:01.203Z,101417.66
2023-04-16T11:32:29.418Z,101409.25
2023-04-16T11:34:57.315Z,101412.94
2023-04-16T11:37:34.950Z,101408.72
2023-04-16T11:40:06.312Z,101417.13
2023-04-16T11:42:36.958Z,101413.19
2023-04-16T11:45:06.248Z,101411.78
2023-04-16T11:47:45.993Z,101416.41
2023-04-16T11:50:21.571Z,101422.31
2023-04-16T11:52:52.296Z,101429.03
2023-04-16T11:55:21.340Z,101424.97
2023-04-16T11:57:49.736Z,101423.97
2023-04-16T12:00:21.761Z,101428.59
2023-04-16T12:02:54.231Z,101426.41
2023-04-16T12:05:31.808Z,101427.63
2023-04-16T12:08:02.208Z,101431.38
2023-04-16T12:10:30.751Z,101437.38
2023-04-16T12:13:11.682Z,101436.16
2023-04-16T12:15:47.225Z,101440.53
2023-04-16T12:18:16.062Z,101437.88
2023-04-16T12:20:44.441Z,101442.06
2023-04-16T12:23:24.049Z,101442.22
2023-04-16T12:25:51.972Z,101441.22
2023-04-16T12:28:28.998Z,101450.47
2023-04-16T12:30:57.539Z,101448.22
2023-04-16T12:33:25.549Z,101453.25
2023-04-16T12:35:53.400Z,101458.28
2023-04-16T12:38:24.499Z,101447.22
2023-04-16T12:40:52.772Z,101445.91
2023-04-16T12:43:21.904Z,101453.22
2023-04-16T12:45:49.843Z,101456.56
2023-04-16T12:48:17.682Z,101452.63
2023-04-16T12:50:45.982Z,101452.63
2023-04-16T12:53:13.840Z,101460.31
2023-04-16T12:55:43.046Z,101462.84
2023-04-16T12:58:12.572Z,101459.91
2023-04-16T13:00:40.888Z,101458.31
2023-04-16T13:03:09.241Z,101459.56
2023-04-16T13:05:37.182Z,101463.47
2023-04-16T13:08:05.262Z,101467.03
2023-04-16T13:10:33.091Z,101472.84
2023-04-16T13:13:02.368Z,101475.50
2023-04-16T13:15:30.277Z,101473.41
2023-04-16T13:17:58.246Z,101478.19
2023-04-16T13:20:26.181Z,101476.59
2023-04-16T13:22:54.922Z,101477.84
2023-04-16T13:25:22.776Z,101476.06
2023-04-16T13:27:50.823Z,101483.94
2023-04-16T13:30:20.512Z,101471.66
2023-04-16T13:32:48.427Z,101477.41
2023-04-16T13:35:16.334Z,101477.31
2023-04-16T13:37:44.119Z,101477.03
2023-04-16T13:40:12.462Z,101475.94
2023-04-16T13:42:40.762Z,101478.22
2023-04-16T13:45:09.875Z,101479.50
2023-04-16T13:47:40.186Z,101474.03
2023-04-16T13:50:08.638Z,101475.97
2023-04-16T13:52:36.558Z,101472.78
2023-04-16T13:55:04.767Z,101474.03
2023-04-16T13:57:32.991Z,101472.91
2023-04-16T14:00:00.904Z,101473.31
2023-04-16T14:02:28.906Z,101469.94
2023-04-16T14:04:58.143Z,101473.59
2023-04-16T14:07:27.210Z,101478.78
2023-04-16T14:09:55.325Z,101471.66
2023-04-16T14:12:23.240Z,101466.34
2023-04-16T14:14:51.150Z,101478.91
2023-04-16T14:17:19.121Z,101472.22
2023-04-16T14:19:47.086Z,101471.19
2023-04-16T14:22:17.795Z,101479.03
2023-04-16T14:24:45.698Z,101480.84
2023-04-16T14:27:13.706Z,101475.16
2023-04-16T14:29:41.999Z,101471.78
2023-04-16T14:32:09.966Z,101477.25
2023-04-16T14:34:37.944Z,101475.03
2023-04-16T14:37:05.823Z,101482.84
2023-04-16T14:39:36.274Z,101482.00
2023-04-16T14:42:04.384Z,101484.41
2023-04-16T14:44:32.197Z,101488.28
2023-04-16T14:47:00.086Z,101490.25
2023-04-16T14:49:27.908Z,101488.94
2023-04-16T14:51:56.540Z,101483.19
2023-04-16T14:54:24.576Z,101490.75
2023-04-16T14:56:53.764Z,101483.28
2023-04-16T14:59:21.569Z,101491.81
2023-04-16T15:01:49.521Z,101495.31
2023-04-16T15:04:17.689Z,101490.66
2023-04-16T15:06:46.659Z,101508.69
2023-04-16T15:09:14.742Z,101498.97
2023-04-16T15:11:42.698Z,101511.56
2023-04-16T15:14:11.991Z,101507.78
2023-04-16T15:16:40.051Z,101507.06
2023-04-16T15:19:08.089Z,101504.47
2023-04-16T15:21:35.996Z,101511.19
2023-04-16T15:24:03.994Z,101501.38
2023-04-16T15:26:32.003Z,101503.34
2023-04-16T15:28:59.854Z,101504.13
2023-04-16T15:31:29.264Z,101506.16
2023-04-16T15:33:57.179Z,101511.25
2023-04-16T15:36:24.963Z,101514.88
2023-04-16T15:38:52.941Z,101511.25
2023-04-16T15:41:20.814Z,101518.56
2023-04-16T15:43:48.685Z,101528.34
2023-04-16T15:46:16.608Z,101523.19
2023-04-16T15:48:46.004Z,101520.66
2023-04-16T15:51:13.913Z,101524.44
2023-04-16T15:53:42.187Z,101524.88
2023-04-16T15:56:10.001Z,101533.66
2023-04-16T15:58:37.896Z,101524.41
2023-04-16T16:01:05.792Z,101534.06
2023-04-16T16:03:35.811Z,101535.16
2023-04-16T16:06:05.587Z,101535.47
2023-04-16T16:08:35.868Z,101538.66
2023-04-16T16:11:04.033Z,101545.06
2023-04-16T16:13:32.055Z,101540.00
2023-04-16T16:15:59.918Z,101534.97
2023-04-16T16:18:27.838Z,101535.16
2023-04-16T16:20:57.775Z,101542.50
2023-04-16T16:23:27.144Z,101544.75
2023-04-16T16:25:55.319Z,101548.78
2023-04-16T16:28:24.144Z,101555.06
2023-04-16T16:30:54.603Z,101542.38
2023-04-16T16:33:22.545Z,101553.84
2023-04-16T16:35:50.501Z,101549.06
2023-04-16T16:38:18.631Z,101544.03
2023-04-16T16:40:47.863Z,101550.56
2023-04-16T16:43:16.303Z,101550.31
2023-04-16T16:45:44.245Z,101550.09
2023-04-16T16:48:12.159Z,101553.72
2023-04-16T16:50:40.018Z,101561.94
2023-04-16T16:53:07.861Z,101562.19
2023-04-16T16:55:36.043Z,101561.50
2023-04-16T16:58:05.371Z,101566.19
2023-04-16T17:00:33.313Z,101567.56
2023-04-16T17:03:01.359Z,101575.78
2023-04-16T17:05:29.390Z,101580.88
2023-04-16T17:07:57.214Z,101586.53
2023-04-16T17:10:25.081Z,101580.41
2023-04-16T17:12:52.959Z,101584.53
2023-04-16T17:15:22.303Z,101596.84
2023-04-16T17:17:51.341Z,101597.28
2023-04-16T17:20:19.941Z,101598.38
2023-04-16T17:22:47.872Z,101589.84
2023-04-16T17:25:15.934Z,101590.31
2023-04-16T17:27:43.789Z,101596.59
2023-04-16T17:30:12.109Z,101597.69
2023-04-16T17:32:41.382Z,101589.59
2023-04-16T17:35:10.856Z,101602.66
2023-04-16T17:37:38.852Z,101610.38
2023-04-16T17:40:09.572Z,101608.81
2023-04-16T17:42:37.645Z,101611.84
2023-04-16T17:45:06.195Z,101622.91
2023-04-16T17:47:35.617Z,101615.09
2023-04-16T17:50:05.579Z,101627.13
2023-04-16T17:52:33.504Z,101622.91
2023-04-16T17:55:01.622Z,101620.78
2023-04-16T17:57:29.756Z,101619.53
2023-04-16T17:59:58.173Z,101637.03
2023-04-16T18:02:26.230Z,101638.84
2023-04-16T18:04:54.229Z,101634.16
2023-04-16T18:07:23.539Z,101641.66
2023-04-16T18:09:51.341Z,101646.31
2023-04-16T18:12:19.193Z,101643.47
2023-04-16T18:14:47.128Z,101643.66
2023-04-16T18:17:15.479Z,101650.06
2023-04-16T18:19:44.248Z,101654.53
2023-04-16T18:22:13.150Z,101656.09
2023-04-16T18:24:42.364Z,101657.88
2023-04-16T18:27:10.346Z,101657.16
2023-04-16T18:29:40.016Z,101668.84
2023-04-16T18:32:11.712Z,101659.34
2023-04-16T18:34:40.088Z,101667.50
2023-04-16T18:37:08.097Z,101675.25
2023-04-16T18:39:36.565Z,101684.38
2023-04-16T18:42:06.142Z,101680.44
2023-04-16T18:44:34.007Z,101681.28
2023-04-16T18:47:01.985Z,101685.84
2023-04-16T18:49:29.933Z,101694.66
2023-04-16T18:51:57.743Z,101687.66
2023-04-16T18:54:25.703Z,101691.16
2023-04-16T18:56:53.599Z,101695.25
2023-04-16T18:59:22.739Z,101692.00
2023-04-16T19:01:50.744Z,101693.31
2023-04-16T19:04:18.821Z,101695.97
2023-04-16T19:06:48.343Z,101689.72
2023-04-16T19:09:16.946Z,101692.59
2023-04-16T19:11:45.301Z,101695.50
2023-04-16T19:14:13.126Z,101693.31
2023-04-16T19:16:42.574Z,101691.75
2023-04-16T19:19:10.544Z,101696.94
2023-04-16T19:21:38.819Z,101691.88
2023-04-16T19:24:07.355Z,101697.41
2023-04-16T19:26:35.139Z,101699.84
2023-04-16T19:29:03.388Z,101696.56
2023-04-16T19:31:31.313Z,101702.94
2023-04-16T19:34:00.549Z,101701.25
2023-04-16T19:36:28.399Z,101707.91
2023-04-16T19:38:56.265Z,101704.28
2023-04-16T19:41:24.249Z,101709.72
2023-04-16T19:43:52.120Z,101709.72
2023-04-16T19:46:20.067Z,101714.78
2023-04-16T19:48:48.238Z,101713.34
2023-04-16T19:51:18.277Z,101716.91
2023-04-16T19:53:46.510Z,101710.31
2023-04-16T19:56:15.911Z,101711.41
2023-04-16T19:58:43.844Z,101710.56
2023-04-16T20:01:11.845Z,101708.75
2023-04-16T20:03:39.794Z,101719.91
2023-04-16T20:06:07.845Z,101715.47
2023-04-16T20:08:37.124Z,101724.84
2023-04-16T20:11:04.899Z,101722.09
2023-04-16T20:13:32.761Z,101723.84
2023-04-16T20:16:01.159Z,101723.28
2023-04-16T20:18:29.203Z,101729.13
2023-04-16T20:20:57.004Z,101724.69
2023-04-16T20:23:24.827Z,101729.63
2023-04-16T20:25:54.079Z,101725.16
2023-04-16T20:28:22.132Z,101719.16
2023-04-16T20:30:50.882Z,101720.94
2023-04-16T20:33:18.930Z,101722.63
2023-04-16T20:35:47.028Z,101722.84
2023-04-16T20:38:14.902Z,101732.94
2023-04-16T20:40:44.964Z,101736.66
2023-04-16T20:43:14.335Z,101737.63
2023-04-16T20:45:46.049Z,101737.38
2023-04-16T20:48:13.957Z,101740.28
2023-04-16T20:50:41.886Z,101737.72
2023-04-16T20:53:09.769Z,101734.72
2023-04-16T20:55:37.671Z,101736.88
2023-04-16T20:58:05.472Z,101734.81
2023-04-16T21:00:34.657Z,101743.88
2023-04-16T21:03:02.694Z,101742.09
2023-04-16T21:05:30.862Z,101741.47
2023-04-16T21:07:58.709Z,101742.66
2023-04-16T21:10:26.482Z,101743.72
2023-04-16T21:12:54.311Z,101747.00
2023-04-16T21:15:22.160Z,101740.97
2023-04-16T21:17:51.400Z,101743.97
2023-04-16T21:20:19.556Z,101743.13
2023-04-16T21:22:47.381Z,101749.47
2023-04-16T21:25:15.344Z,101750.53
2023-04-16T21:27:43.870Z,101746.06
2023-04-16T21:30:12.919Z,101750.97
2023-04-16T21:32:40.862Z,101750.47
2023-04-16T21:35:10.593Z,101747.72
2023-04-16T21:37:38.474Z,101751.44
2023-04-16T21:40:07.532Z,101745.47
2023-04-16T21:42:44.514Z,101740.84
2023-04-16T21:45:14.406Z,101753.53
2023-04-16T21:47:42.217Z,101751.13
2023-04-16T21:50:12.648Z,101745.81
2023-04-16T21:52:46.215Z,101746.66
2023-04-16T21:55:14.599Z,101756.53
2023-04-16T21:57:42.462Z,101747.66
2023-04-16T22:00:13.884Z,101753.78
2023-04-16T22:02:42.789Z,101752.44
2023-04-16T22:05:12.650Z,101745.97
2023-04-16T22:07:40.729Z,101752.53
2023-04-16T22:10:10.174Z,101743.63
2023-04-16T22:12:39.527Z,101756.75
2023-04-16T22:15:09.020Z,101757.00
2023-04-16T22:17:36.992Z,101757.84
2023-04-16T22:20:08.469Z,101754.03
2023-04-16T22:22:37.820Z,101754.13
2023-04-16T22:25:06.521Z,101762.84
2023-04-16T22:27:34.526Z,101763.56
2023-04-16T22:30:02.663Z,101758.47
2023-04-16T22:32:31.471Z,101755.53
2023-04-16T22:34:59.642Z,101761.16
2023-04-16T22:37:27.625Z,101768.34
2023-04-16T22:39:56.790Z,101760.81
2023-04-16T22:42:24.848Z,101773.19
2023-04-16T22:44:52.642Z,101768.00
2023-04-16T22:47:21.372Z,101765.16
2023-04-16T22:49:49.547Z,101765.38
2023-04-16T22:52:17.391Z,101764.72
2023-04-16T22:54:45.261Z,101769.91
2023-04-16T22:57:17.349Z,101764.53
2023-04-16T22:59:45.241Z,101767.59
2023-04-16T23:02:13.525Z,101769.41
2023-04-16T23:04:41.738Z,101765.16
2023-04-16T23:07:09.578Z,101767.81
2023-04-16T23:09:37.435Z,101774.69
2023-04-16T23:12:05.812Z,101774.47
2023-04-16T23:14:35.440Z,101766.31
2023-04-16T23:17:03.578Z,101768.84
2023-04-16T23:19:31.804Z,101769.69
2023-04-16T23:21:59.728Z,101766.31
2023-04-16T23:24:27.573Z,101771.41
2023-04-16T23:26:55.966Z,101777.41
2023-04-16T23:29:23.813Z,101771.28
2023-04-16T23:31:53.116Z,101776.91
2023-04-16T23:34:21.074Z,101774.16
2023-04-16T23:36:49.000Z,101769.59
2023-04-16T23:39:16.998Z,101761.97
2023-04-16T23:41:44.845Z,101772.34
2023-04-16T23:44:12.934Z,101768.63
2023-04-16T23:46:41.178Z,101772.25
2023-04-16T23:49:10.770Z,101770.44
2023-04-16T23:51:38.920Z,101769.38
2023-04-16T23:54:06.865Z,101775.00
2023-04-16T23:56:34.778Z,101773.94
2023-04-16T23:59:02.701Z,101777.53
